Garrisonville, Virginia
Current Conditions -  °F | °C
As of 7:55 AM on Friday 24 Oct 2014 (Local Time) from KRMN Reporting Station
Clear Clear  
Wind Chill: 11°   Ceiling: Unl
Heat Index: 11°   Visibility: 10mi
Dew Point:   Wind: 3mph
Humidity: 69%   Direction: 300°WNW
Pressure: 30.03"   Gusts: NA
Location:  38.48°N, 77.43°W
Report Text: KRMN 241155Z AUTO 30003KT 10SM CLR 11/05 A3003 RMK AO2 T01060051 10116 20077
Loading
Personal Weather Stations






























Interactive Weather Map
Tropical Storm Tracking
New forecast layout! Learn more

10-Day Weather Forecast

Advertisements
Track Severe Weather on mobile